Terminal Aerodrome Forecast
Issued by NWS Sterling, VA

Home | Current Version | Previous Version | Text Only | Print | Product List | Glossary On
Versions: 1 2 3 4 5 6 7 8 9 10 11 12 13 14 15 16 17 18 19 20 21 22 23 24 25 26 27 28 29 30
000
FTUS41 KLWX 261810 AAA
TAFDCA
TAF AMD
KDCA 261810Z 2618/2724 31010KT P6SM SKC
     FM262300 01006KT P6SM BKN150
     FM270000 08005KT P6SM OVC150
     FM270600 11004KT P6SM -RA OVC060
     FM271200 06006KT 1 1/2SM -RA BR OVC008
     FM271500 05006KT 3SM BR OVC008
     FM271800 01006KT P6SM OVC015
     FM272000 34006KT P6SM BKN250=

USA.gov is the U.S. government's official web portal to all federal, state and local government web resources and services.